createdAt,value
2022-10-07T00:01:09.129Z,102351.47
2022-10-07T00:03:36.418Z,102359.53
2022-10-07T00:06:16.003Z,102350.72
2022-10-07T00:08:46.296Z,102344.00
2022-10-07T00:11:17.098Z,102350.38
2022-10-07T00:13:46.327Z,102340.28
2022-10-07T00:16:21.049Z,102336.84
2022-10-07T00:18:48.540Z,102339.09
2022-10-07T00:21:17.358Z,102336.78
2022-10-07T00:23:45.892Z,102332.72
2022-10-07T00:26:17.070Z,102334.84
2022-10-07T00:28:46.637Z,102335.13
2022-10-07T00:31:16.851Z,102340.84
2022-10-07T00:33:44.618Z,102345.78
2022-10-07T00:36:23.539Z,102336.72
2022-10-07T00:39:00.978Z,102330.81
2022-10-07T00:41:32.901Z,102326.50
2022-10-07T00:44:23.263Z,102325.59
2022-10-07T00:46:50.700Z,102323.59
2022-10-07T00:49:17.604Z,102321.97
2022-10-07T00:51:44.785Z,102311.50
2022-10-07T00:54:16.072Z,102317.00
2022-10-07T00:56:47.417Z,102312.63
2022-10-07T00:59:18.317Z,102309.28
2022-10-07T01:01:46.019Z,102306.19
2022-10-07T01:04:17.268Z,102304.00
2022-10-07T01:06:47.420Z,102297.88
2022-10-07T01:09:16.618Z,102294.06
2022-10-07T01:12:17.462Z,102293.81
2022-10-07T01:15:05.703Z,102286.06
2022-10-07T01:18:09.771Z,102292.47
2022-10-07T01:20:50.077Z,102279.66
2022-10-07T01:23:25.820Z,102280.91
2022-10-07T01:26:31.421Z,102278.31
2022-10-07T01:29:10.777Z,102278.81
2022-10-07T01:32:06.823Z,102265.38
2022-10-07T01:34:35.569Z,102257.63
2022-10-07T01:37:05.773Z,102250.59
2022-10-07T01:39:46.966Z,102251.03
2022-10-07T01:42:14.629Z,102244.41
2022-10-07T01:44:47.397Z,102237.66
2022-10-07T01:47:19.834Z,102232.25
2022-10-07T01:49:49.602Z,102242.81
2022-10-07T01:53:06.461Z,102233.31
2022-10-07T01:55:54.734Z,102234.16
2022-10-07T01:59:07.981Z,102237.03
2022-10-07T02:02:09.229Z,102234.88
2022-10-07T02:04:59.058Z,102224.19
2022-10-07T02:07:52.286Z,102219.88
2022-10-07T02:10:55.256Z,102211.53
2022-10-07T02:14:11.859Z,102208.94
2022-10-07T02:16:47.107Z,102207.84
2022-10-07T02:19:25.925Z,102204.88
2022-10-07T02:21:58.551Z,102213.69
2022-10-07T02:24:32.560Z,102213.06
2022-10-07T02:27:06.937Z,102206.06
2022-10-07T02:29:37.176Z,102197.28
2022-10-07T02:32:12.354Z,102192.97
2022-10-07T02:34:43.854Z,102197.44
2022-10-07T02:37:18.451Z,102186.78
2022-10-07T02:39:46.898Z,102189.38
2022-10-07T02:42:47.980Z,102204.09
2022-10-07T02:45:26.827Z,102191.66
2022-10-07T02:48:05.031Z,102182.72
2022-10-07T02:50:42.358Z,102178.41
2022-10-07T02:53:14.080Z,102177.91
2022-10-07T02:55:47.393Z,102177.78
2022-10-07T02:58:16.163Z,102168.69
2022-10-07T03:00:50.921Z,102169.28
2022-10-07T03:03:19.971Z,102173.63
2022-10-07T03:05:51.892Z,102171.44
2022-10-07T03:08:25.461Z,102168.72
2022-10-07T03:10:54.977Z,102165.19
2022-10-07T03:13:22.343Z,102165.53
2022-10-07T03:15:52.187Z,102166.16
2022-10-07T03:18:28.568Z,102158.66
2022-10-07T03:21:00.153Z,102167.88
2022-10-07T03:23:29.493Z,102161.09
2022-10-07T03:26:00.617Z,102161.13
2022-10-07T03:28:30.188Z,102161.22
2022-10-07T03:31:10.039Z,102168.22
2022-10-07T03:33:40.055Z,102166.28
2022-10-07T03:36:08.932Z,102157.78
2022-10-07T03:38:38.670Z,102155.97
2022-10-07T03:41:06.320Z,102145.97
2022-10-07T03:43:37.752Z,102148.81
2022-10-07T03:46:07.301Z,102145.13
2022-10-07T03:48:34.253Z,102145.38
2022-10-07T03:51:03.810Z,102145.59
2022-10-07T03:53:31.029Z,102136.38
2022-10-07T03:55:58.130Z,102141.91
2022-10-07T03:58:27.413Z,102136.28
2022-10-07T04:01:11.986Z,102129.63
2022-10-07T04:03:41.330Z,102125.19
2022-10-07T04:06:09.547Z,102122.38
2022-10-07T04:08:36.633Z,102116.59
2022-10-07T04:11:04.612Z,102119.66
2022-10-07T04:13:34.192Z,102119.06
2022-10-07T04:16:10.068Z,102114.38
2022-10-07T04:18:37.509Z,102108.00
2022-10-07T04:21:09.685Z,102119.53
2022-10-07T04:23:41.085Z,102114.50
2022-10-07T04:26:12.170Z,102109.97
2022-10-07T04:28:39.649Z,102115.00
2022-10-07T04:31:12.121Z,102112.91
2022-10-07T04:33:41.185Z,102113.28
2022-10-07T04:36:10.813Z,102106.28
2022-10-07T04:38:39.147Z,102107.00
2022-10-07T04:41:07.947Z,102108.97
2022-10-07T04:43:37.555Z,102122.00
2022-10-07T04:46:08.330Z,102109.34
2022-10-07T04:48:37.775Z,102116.59
2022-10-07T04:51:08.171Z,102108.00
2022-10-07T04:53:39.104Z,102111.19
2022-10-07T04:56:08.813Z,102105.53
2022-10-07T04:58:36.777Z,102106.03
2022-10-07T05:01:09.596Z,102098.53
2022-10-07T05:03:41.936Z,102095.44
2022-10-07T05:06:11.838Z,102092.47
2022-10-07T05:08:38.800Z,102093.25
2022-10-07T05:11:05.804Z,102087.84
2022-10-07T05:13:36.269Z,102096.19
2022-10-07T05:16:07.569Z,102084.28
2022-10-07T05:18:37.012Z,102082.44
2022-10-07T05:21:11.450Z,102084.41
2022-10-07T05:23:40.549Z,102086.13
2022-10-07T05:26:08.197Z,102080.84
2022-10-07T05:28:43.152Z,102071.38
2022-10-07T05:31:13.409Z,102073.47
2022-10-07T05:33:41.236Z,102082.94
2022-10-07T05:36:10.041Z,102081.22
2022-10-07T05:38:39.677Z,102072.13
2022-10-07T05:41:15.048Z,102075.56
2022-10-07T05:43:47.213Z,102077.53
2022-10-07T05:46:21.862Z,102080.34
2022-10-07T05:48:51.654Z,102078.63
2022-10-07T05:51:20.123Z,102079.00
2022-10-07T05:53:50.462Z,102074.91
2022-10-07T05:56:22.354Z,102072.84
2022-10-07T05:58:50.643Z,102077.47
2022-10-07T06:01:22.774Z,102073.06
2022-10-07T06:03:55.016Z,102076.00
2022-10-07T06:06:26.809Z,102070.22
2022-10-07T06:08:54.259Z,102071.66
2022-10-07T06:11:40.082Z,102072.13
2022-10-07T06:14:07.000Z,102077.03
2022-10-07T06:16:36.046Z,102069.03
2022-10-07T06:19:22.280Z,102069.16
2022-10-07T06:21:50.391Z,102068.47
2022-10-07T06:24:17.459Z,102069.03
2022-10-07T06:26:46.792Z,102066.09
2022-10-07T06:29:13.589Z,102061.44
2022-10-07T06:31:42.882Z,102064.53
2022-10-07T06:34:09.686Z,102067.44
2022-10-07T06:36:38.980Z,102065.88
2022-10-07T06:39:05.854Z,102065.47
2022-10-07T06:41:37.212Z,102071.31
2022-10-07T06:44:09.646Z,102065.13
2022-10-07T06:46:38.637Z,102070.28
2022-10-07T06:49:05.508Z,102076.06
2022-10-07T06:51:37.151Z,102069.09
2022-10-07T06:54:04.106Z,102068.25
2022-10-07T06:56:31.050Z,102068.09
2022-10-07T06:58:58.035Z,102049.13
2022-10-07T07:01:26.968Z,102058.28
2022-10-07T07:03:54.120Z,102058.66
2022-10-07T07:06:23.872Z,102058.56
2022-10-07T07:08:51.282Z,102061.31
2022-10-07T07:11:37.796Z,102052.56
2022-10-07T07:14:06.900Z,102059.16
2022-10-07T07:16:35.515Z,102058.34
2022-10-07T07:19:08.643Z,102053.13
2022-10-07T07:21:40.792Z,102049.91
2022-10-07T07:24:10.242Z,102053.50
2022-10-07T07:26:39.435Z,102050.97
2022-10-07T07:29:07.089Z,102052.34
2022-10-07T07:31:37.333Z,102046.41
2022-10-07T07:34:11.326Z,102034.84
2022-10-07T07:36:43.571Z,102039.28
2022-10-07T07:39:15.597Z,102031.28
2022-10-07T07:41:50.868Z,102038.19
2022-10-07T07:44:21.302Z,102035.13
2022-10-07T07:46:52.040Z,102020.81
2022-10-07T07:49:20.949Z,102031.81
2022-10-07T07:51:50.487Z,102033.06
2022-10-07T07:54:17.404Z,102022.69
2022-10-07T07:56:44.879Z,102034.81
2022-10-07T07:59:11.969Z,102015.50
2022-10-07T08:01:39.068Z,102017.28
2022-10-07T08:04:06.018Z,102006.22
2022-10-07T08:06:34.559Z,102010.81
2022-10-07T08:09:08.595Z,102007.47
2022-10-07T08:11:35.609Z,102012.75
2022-10-07T08:14:03.332Z,102005.88
2022-10-07T08:16:30.403Z,102006.59
2022-10-07T08:18:58.153Z,102009.75
2022-10-07T08:21:35.733Z,102006.75
2022-10-07T08:24:05.296Z,102001.94
2022-10-07T08:26:35.133Z,101990.91
2022-10-07T08:29:08.187Z,102000.34
2022-10-07T08:31:35.682Z,101998.06
2022-10-07T08:34:04.965Z,101995.75
2022-10-07T08:36:33.414Z,101987.13
2022-10-07T08:39:01.623Z,101984.09
2022-10-07T08:41:37.496Z,101990.84
2022-10-07T08:44:35.954Z,101981.41
2022-10-07T08:47:20.281Z,101980.69
2022-10-07T08:50:18.128Z,101979.84
2022-10-07T08:53:03.146Z,101964.72
2022-10-07T08:55:40.957Z,101964.59
2022-10-07T08:58:44.046Z,101958.72
2022-10-07T09:01:56.295Z,101956.97
2022-10-07T09:04:35.024Z,101955.81
2022-10-07T09:07:18.804Z,101946.44
2022-10-07T09:10:09.663Z,101946.56
2022-10-07T09:12:54.109Z,101950.09
2022-10-07T09:15:49.914Z,101946.28
2022-10-07T09:18:26.949Z,101936.13
2022-10-07T09:20:56.932Z,101942.38
2022-10-07T09:23:33.812Z,101937.81
2022-10-07T09:26:00.913Z,101936.38
2022-10-07T09:28:36.963Z,101929.00
2022-10-07T09:31:07.306Z,101934.50
2022-10-07T09:33:42.608Z,101926.41
2022-10-07T09:36:19.055Z,101922.97
2022-10-07T09:38:59.002Z,101915.44
2022-10-07T09:41:35.297Z,101915.53
2022-10-07T09:44:15.860Z,101904.16
2022-10-07T09:46:48.884Z,101903.72
2022-10-07T09:49:27.998Z,101903.44
2022-10-07T09:52:06.419Z,101897.75
2022-10-07T09:54:39.190Z,101892.06
2022-10-07T09:57:30.000Z,101896.13
2022-10-07T10:00:27.347Z,101883.13
2022-10-07T10:03:07.467Z,101889.75
2022-10-07T10:05:38.101Z,101877.09
2022-10-07T10:08:10.637Z,101892.56
2022-10-07T10:10:37.772Z,101887.53
2022-10-07T10:13:07.261Z,101869.84
2022-10-07T10:15:46.269Z,101873.03
2022-10-07T10:18:32.073Z,101873.03
2022-10-07T10:21:29.833Z,101866.03
2022-10-07T10:24:06.059Z,101863.97
2022-10-07T10:26:36.245Z,101870.09
2022-10-07T10:29:09.436Z,101858.47
2022-10-07T10:32:01.328Z,101863.44
2022-10-07T10:35:25.183Z,101859.19
2022-10-07T10:38:25.921Z,101859.69
2022-10-07T10:41:03.018Z,101847.50
2022-10-07T10:44:10.255Z,101840.97
2022-10-07T10:46:55.061Z,101836.56
2022-10-07T10:49:54.378Z,101834.91
2022-10-07T10:52:46.132Z,101837.94
2022-10-07T10:55:37.435Z,101824.59
2022-10-07T10:58:22.033Z,101820.38
2022-10-07T11:01:09.715Z,101819.31
2022-10-07T11:04:15.032Z,101806.16
2022-10-07T11:07:11.947Z,101810.41
2022-10-07T11:10:18.371Z,101806.34
2022-10-07T11:12:55.821Z,101793.97
2022-10-07T11:15:31.460Z,101786.75
2022-10-07T11:18:06.662Z,101792.69
2022-10-07T11:20:48.069Z,101785.44
2022-10-07T11:23:53.638Z,101776.75
2022-10-07T11:26:39.299Z,101783.22
2022-10-07T11:29:38.677Z,101765.94
2022-10-07T11:32:15.534Z,101762.03
2022-10-07T11:35:15.532Z,101752.75
2022-10-07T11:38:14.873Z,101758.78
2022-10-07T11:41:24.044Z,101753.09
2022-10-07T11:43:58.219Z,101758.16
2022-10-07T11:46:39.676Z,101750.03
2022-10-07T11:49:19.928Z,101745.50
2022-10-07T11:52:24.297Z,101738.63
2022-10-07T11:55:23.738Z,101733.50
2022-10-07T11:57:56.376Z,101722.47
2022-10-07T12:00:34.541Z,101724.69
2022-10-07T12:03:36.435Z,101715.53
2022-10-07T12:06:12.177Z,101705.25
2022-10-07T12:08:44.388Z,101710.63
2022-10-07T12:11:16.985Z,101694.72
2022-10-07T12:13:49.641Z,101698.84
2022-10-07T12:16:30.273Z,101676.59
2022-10-07T12:19:12.890Z,101685.47
2022-10-07T12:22:02.987Z,101676.75
2022-10-07T12:24:46.720Z,101679.47
2022-10-07T12:27:17.324Z,101677.16
2022-10-07T12:29:58.885Z,101679.09
2022-10-07T12:32:51.739Z,101674.88
2022-10-07T12:35:34.696Z,101670.41
2022-10-07T12:38:10.709Z,101656.25
2022-10-07T12:40:41.036Z,101652.09
2022-10-07T12:43:41.127Z,101652.16
2022-10-07T12:46:15.377Z,101650.69
2022-10-07T12:48:54.727Z,101641.44
2022-10-07T12:51:41.050Z,101643.25
2022-10-07T12:54:21.482Z,101637.88
2022-10-07T12:56:49.093Z,101634.41
2022-10-07T12:59:48.862Z,101626.28
2022-10-07T13:02:43.555Z,101621.84
2022-10-07T13:05:58.462Z,101622.25
2022-10-07T13:09:14.566Z,101611.78
2022-10-07T13:11:55.678Z,101614.09
2022-10-07T13:14:59.765Z,101601.75
2022-10-07T13:17:49.315Z,101603.94
2022-10-07T13:20:36.018Z,101602.78
2022-10-07T13:23:24.589Z,101605.38
2022-10-07T13:25:57.011Z,101603.19
2022-10-07T13:28:38.343Z,101601.75
2022-10-07T13:31:27.936Z,101602.06
2022-10-07T13:33:57.522Z,101592.72
2022-10-07T13:36:33.013Z,101595.56
2022-10-07T13:39:24.361Z,101599.59
2022-10-07T13:41:55.359Z,101600.78
2022-10-07T13:44:29.364Z,101585.69
2022-10-07T13:47:06.380Z,101577.97
2022-10-07T13:49:47.113Z,101576.81
2022-10-07T13:52:22.093Z,101576.56
2022-10-07T13:54:52.989Z,101570.34
2022-10-07T13:57:23.589Z,101570.75
2022-10-07T13:59:51.586Z,101579.53
2022-10-07T14:02:20.403Z,101567.00
2022-10-07T14:05:03.632Z,101555.66
2022-10-07T14:07:31.195Z,101555.59
2022-10-07T14:10:09.710Z,101545.50
2022-10-07T14:13:07.242Z,101534.81
2022-10-07T14:15:36.370Z,101531.22
2022-10-07T14:18:11.218Z,101525.78
2022-10-07T14:21:19.852Z,101518.28
2022-10-07T14:23:49.458Z,101516.50
2022-10-07T14:26:17.670Z,101515.34
2022-10-07T14:28:46.321Z,101511.66
2022-10-07T14:31:39.141Z,101509.47
2022-10-07T14:34:39.554Z,101504.94
2022-10-07T14:37:10.526Z,101503.66
2022-10-07T14:39:42.411Z,101509.13
2022-10-07T14:42:17.924Z,101492.22
2022-10-07T14:44:45.085Z,101495.06
2022-10-07T14:47:21.553Z,101487.09
2022-10-07T14:49:48.951Z,101487.63
2022-10-07T14:52:28.692Z,101486.22
2022-10-07T14:54:58.477Z,101477.44
2022-10-07T14:57:27.627Z,101480.72
2022-10-07T14:59:57.030Z,101472.06
2022-10-07T15:02:27.392Z,101467.28
2022-10-07T15:04:56.549Z,101468.34
2022-10-07T15:07:27.895Z,101466.50
2022-10-07T15:09:54.712Z,101471.34
2022-10-07T15:12:23.604Z,101455.88
2022-10-07T15:14:50.525Z,101464.44
2022-10-07T15:17:17.594Z,101454.81
2022-10-07T15:19:44.669Z,101450.00
2022-10-07T15:22:11.461Z,101445.19
2022-10-07T15:24:38.615Z,101446.66
2022-10-07T15:27:07.120Z,101449.75
2022-10-07T15:29:33.989Z,101447.44
2022-10-07T15:32:00.777Z,101439.59
2022-10-07T15:34:27.602Z,101434.97
2022-10-07T15:36:54.430Z,101427.56
2022-10-07T15:39:24.196Z,101426.06
2022-10-07T15:41:50.983Z,101424.75
2022-10-07T15:44:22.023Z,101436.16
2022-10-07T15:46:55.555Z,101427.03
2022-10-07T15:49:22.329Z,101418.81
2022-10-07T15:51:49.147Z,101424.38
2022-10-07T15:54:16.595Z,101423.53
2022-10-07T15:56:50.186Z,101423.97
2022-10-07T15:59:17.053Z,101409.56
2022-10-07T16:01:44.246Z,101414.16
2022-10-07T16:04:13.133Z,101423.84
2022-10-07T16:06:49.515Z,101419.41
2022-10-07T16:09:18.852Z,101418.22
2022-10-07T16:11:46.460Z,101410.22
2022-10-07T16:14:16.012Z,101416.28
2022-10-07T16:16:46.153Z,101417.66
2022-10-07T16:19:13.076Z,101411.59
2022-10-07T16:21:42.439Z,101407.41
2022-10-07T16:24:18.079Z,101413.59
2022-10-07T16:26:47.007Z,101413.16
2022-10-07T16:29:37.939Z,101416.09
2022-10-07T16:32:11.109Z,101409.63
2022-10-07T16:34:41.903Z,101414.00
2022-10-07T16:37:08.908Z,101407.22
2022-10-07T16:39:35.716Z,101406.34
2022-10-07T16:42:02.702Z,101402.44
2022-10-07T16:44:29.629Z,101402.59
2022-10-07T16:46:57.761Z,101398.41
2022-10-07T16:49:27.378Z,101396.59
2022-10-07T16:51:57.026Z,101398.94
2022-10-07T16:54:29.724Z,101394.50
2022-10-07T16:56:58.879Z,101403.81
2022-10-07T16:59:26.228Z,101404.75
2022-10-07T17:01:55.929Z,101396.84
2022-10-07T17:04:24.875Z,101400.25
2022-10-07T17:06:53.239Z,101402.72
2022-10-07T17:09:21.781Z,101397.03
2022-10-07T17:11:51.805Z,101401.19
2022-10-07T17:14:20.631Z,101394.09
2022-10-07T17:16:55.142Z,101401.94
2022-10-07T17:19:27.904Z,101407.34
2022-10-07T17:21:56.480Z,101402.81
2022-10-07T17:24:24.042Z,101406.22
2022-10-07T17:26:53.911Z,101399.66
2022-10-07T17:29:26.033Z,101404.28
2022-10-07T17:31:53.257Z,101394.72
2022-10-07T17:34:36.713Z,101398.34
2022-10-07T17:37:03.616Z,101393.81
2022-10-07T17:39:31.146Z,101394.47
2022-10-07T17:41:58.157Z,101396.44
2022-10-07T17:44:27.495Z,101396.84
2022-10-07T17:46:58.964Z,101397.09
2022-10-07T17:49:26.706Z,101398.91
2022-10-07T17:51:55.182Z,101391.66
2022-10-07T17:54:23.311Z,101394.22
2022-10-07T17:56:50.259Z,101389.13
2022-10-07T17:59:17.291Z,101394.50
2022-10-07T18:01:45.157Z,101387.88
2022-10-07T18:04:22.546Z,101383.75
2022-10-07T18:06:54.470Z,101382.50
2022-10-07T18:09:24.253Z,101384.22
2022-10-07T18:12:09.879Z,101384.13
2022-10-07T18:15:05.358Z,101380.06
2022-10-07T18:17:36.777Z,101379.13
2022-10-07T18:20:07.834Z,101376.47
2022-10-07T18:22:36.189Z,101369.75
2022-10-07T18:25:04.115Z,101363.84
2022-10-07T18:27:31.355Z,101369.09
2022-10-07T18:29:58.278Z,101372.69
2022-10-07T18:32:25.622Z,101374.44
2022-10-07T18:34:52.576Z,101373.97
2022-10-07T18:37:22.933Z,101372.28
2022-10-07T18:39:52.816Z,101362.22
2022-10-07T18:42:24.938Z,101350.38
2022-10-07T18:44:52.324Z,101345.81
2022-10-07T18:47:19.427Z,101347.88
2022-10-07T18:49:46.283Z,101342.41
2022-10-07T18:52:16.205Z,101338.78
2022-10-07T18:54:43.049Z,101331.34
2022-10-07T18:57:09.970Z,101328.28
2022-10-07T18:59:36.842Z,101330.66
2022-10-07T19:02:07.301Z,101320.81
2022-10-07T19:04:34.574Z,101325.94
2022-10-07T19:07:01.923Z,101320.63
2022-10-07T19:09:29.083Z,101319.88
2022-10-07T19:11:55.905Z,101328.09
2022-10-07T19:14:25.934Z,101333.22
2022-10-07T19:16:55.378Z,101327.94
2022-10-07T19:19:24.171Z,101323.34
2022-10-07T19:21:57.029Z,101321.00
2022-10-07T19:24:43.993Z,101319.94
2022-10-07T19:27:11.243Z,101325.75
2022-10-07T19:29:38.193Z,101325.66
2022-10-07T19:32:08.620Z,101328.00
2022-10-07T19:34:35.987Z,101320.75
2022-10-07T19:37:03.314Z,101322.31
2022-10-07T19:39:30.133Z,101319.94
2022-10-07T19:41:57.441Z,101318.38
2022-10-07T19:44:24.531Z,101315.84
2022-10-07T19:46:55.302Z,101308.00
2022-10-07T19:49:22.300Z,101304.56
2022-10-07T19:51:58.325Z,101290.84
2022-10-07T19:54:28.338Z,101287.59
2022-10-07T19:56:55.193Z,101272.81
2022-10-07T19:59:22.143Z,101276.22
2022-10-07T20:01:55.730Z,101270.91
2022-10-07T20:04:25.758Z,101277.88
2022-10-07T20:06:52.764Z,101272.41
2022-10-07T20:09:20.121Z,101273.13
2022-10-07T20:11:47.303Z,101269.78
2022-10-07T20:14:15.181Z,101271.13
2022-10-07T20:16:42.746Z,101270.44
2022-10-07T20:19:15.871Z,101279.13
2022-10-07T20:21:48.929Z,101274.88
2022-10-07T20:24:16.750Z,101269.78
2022-10-07T20:26:47.294Z,101271.84
2022-10-07T20:29:16.258Z,101267.75
2022-10-07T20:31:45.807Z,101267.41
2022-10-07T20:34:16.249Z,101270.63
2022-10-07T20:36:43.613Z,101265.53
2022-10-07T20:39:38.504Z,101267.75
2022-10-07T20:42:21.881Z,101264.00
2022-10-07T20:44:50.172Z,101258.06
2022-10-07T20:47:21.513Z,101260.94
2022-10-07T20:49:50.823Z,101252.78
2022-10-07T20:52:32.176Z,101253.47
2022-10-07T20:55:01.598Z,101252.25
2022-10-07T20:57:38.204Z,101253.78
2022-10-07T21:00:10.360Z,101256.66
2022-10-07T21:02:45.669Z,101250.03
2022-10-07T21:05:13.643Z,101242.16
2022-10-07T21:07:40.502Z,101239.47
2022-10-07T21:10:07.553Z,101236.91
2022-10-07T21:12:37.867Z,101239.47
2022-10-07T21:15:11.699Z,101241.16
2022-10-07T21:17:40.643Z,101225.31
2022-10-07T21:20:07.906Z,101221.69
2022-10-07T21:22:36.300Z,101218.31
2022-10-07T21:25:03.407Z,101222.06
2022-10-07T21:27:30.217Z,101222.06
2022-10-07T21:30:00.386Z,101222.72
2022-10-07T21:32:28.084Z,101213.22
2022-10-07T21:34:56.801Z,101220.72
2022-10-07T21:37:23.778Z,101215.28
2022-10-07T21:39:50.597Z,101213.97
2022-10-07T21:42:17.430Z,101214.00
2022-10-07T21:44:44.335Z,101203.81
2022-10-07T21:47:13.509Z,101189.84
2022-10-07T21:49:41.096Z,101199.28
2022-10-07T21:52:08.090Z,101193.19
2022-10-07T21:54:38.380Z,101184.34
2022-10-07T21:57:05.210Z,101182.25
2022-10-07T21:59:35.178Z,101176.69
2022-10-07T22:02:05.132Z,101180.22
2022-10-07T22:04:35.375Z,101169.25
2022-10-07T22:07:20.656Z,101169.69
2022-10-07T22:09:49.851Z,101171.41
2022-10-07T22:12:16.788Z,101169.88
2022-10-07T22:14:45.700Z,101163.75
2022-10-07T22:17:14.295Z,101151.69
2022-10-07T22:19:43.827Z,101145.94
2022-10-07T22:22:11.629Z,101154.38
2022-10-07T22:24:40.741Z,101143.19
2022-10-07T22:27:10.689Z,101143.00
2022-10-07T22:29:38.450Z,101150.31
2022-10-07T22:32:07.825Z,101139.72
2022-10-07T22:34:53.035Z,101146.88
2022-10-07T22:37:19.951Z,101141.13
2022-10-07T22:39:49.830Z,101133.47
2022-10-07T22:42:19.763Z,101136.19
2022-10-07T22:44:51.196Z,101131.44
2022-10-07T22:47:18.021Z,101128.91
2022-10-07T22:49:44.861Z,101125.88
2022-10-07T22:52:11.737Z,101126.88
2022-10-07T22:54:38.573Z,101126.03
2022-10-07T22:57:07.495Z,101126.47
2022-10-07T22:59:34.316Z,101122.06
2022-10-07T23:02:02.623Z,101124.97
2022-10-07T23:04:29.468Z,101118.53
2022-10-07T23:06:56.536Z,101107.16
2022-10-07T23:09:26.436Z,101107.50
2022-10-07T23:11:53.361Z,101111.41
2022-10-07T23:14:22.760Z,101107.16
2022-10-07T23:16:49.934Z,101113.28
2022-10-07T23:19:17.079Z,101100.22
2022-10-07T23:21:47.100Z,101109.25
2022-10-07T23:24:14.423Z,101109.41
2022-10-07T23:26:46.102Z,101106.19
2022-10-07T23:29:13.859Z,101107.50
2022-10-07T23:31:51.025Z,101100.19
2022-10-07T23:34:18.739Z,101096.47
2022-10-07T23:36:48.676Z,101094.94
2022-10-07T23:39:15.686Z,101090.22
2022-10-07T23:41:42.649Z,101091.94
2022-10-07T23:44:09.651Z,101090.38
2022-10-07T23:46:38.048Z,101085.97
2022-10-07T23:49:06.032Z,101083.47
2022-10-07T23:51:38.140Z,101081.94
2022-10-07T23:54:05.574Z,101075.31
2022-10-07T23:56:37.181Z,101074.97
2022-10-07T23:59:08.848Z,101070.72
